Time;durP1;ratioP1;P1;durP2;ratioP2;P2;SDS_P1;SDS_P2;PMS_P1;PMS_P2;Temp;Humidity;BMP_temperature;BMP_pressure;BME280_temperature;BME280_humidity;BME280_pressure;Samples;Min_cycle;Max_cycle;Signal;HPM_P1;HPM_P2
2022/08/06 00:00:41;;;;;;;4.60;2.47;;;;;;;;;;4978122;28;20050;-83
2022/08/06 00:03:07;;;;;;;3.28;2.50;;;;;;;;;;4978367;28;20038;-83
2022/08/06 00:05:33;;;;;;;3.60;2.38;;;;;;;;;;4961209;28;20428;-83
2022/08/06 00:07:58;;;;;;;4.10;2.47;;;;;;;;;;4978178;28;20050;-84
2022/08/06 00:10:25;;;;;;;3.13;2.35;;;;;;;;;;4977153;28;20034;-84
2022/08/06 00:12:51;;;;;;;3.70;2.47;;;;;;;;;;4960854;28;20045;-83
2022/08/06 00:15:20;;;;;;;2.45;2.25;;;;;;;;;;4977237;28;20118;-83
2022/08/06 00:17:46;;;;;;;3.90;2.40;;;;;;;;;;4979325;28;20040;-84
2022/08/06 00:20:14;;;;;;;3.67;2.40;;;;;;;;;;4978288;28;20038;-83
2022/08/06 00:22:39;;;;;;;3.30;2.10;;;;;;;;;;4960850;28;20094;-83
2022/08/06 00:25:07;;;;;;;6.05;2.60;;;;;;;;;;4977349;28;20042;-83
2022/08/06 00:27:33;;;;;;;5.32;2.58;;;;;;;;;;4978374;28;20031;-83
2022/08/06 00:29:59;;;;;;;4.28;2.28;;;;;;;;;;4976132;28;20046;-83
2022/08/06 00:32:24;;;;;;;3.72;2.50;;;;;;;;;;4976361;28;20050;-83
2022/08/06 00:34:50;;;;;;;4.47;2.78;;;;;;;;;;4959995;28;20510;-83
2022/08/06 00:37:15;;;;;;;3.70;2.72;;;;;;;;;;4976942;28;20626;-83
2022/08/06 00:39:41;;;;;;;4.18;2.55;;;;;;;;;;4977683;28;20035;-83
2022/08/06 00:42:08;;;;;;;3.95;2.50;;;;;;;;;;4977971;28;20034;-83
2022/08/06 00:44:34;;;;;;;3.80;2.40;;;;;;;;;;4975785;28;20027;-82
2022/08/06 00:47:00;;;;;;;4.32;2.70;;;;;;;;;;4978083;28;20026;-83
2022/08/06 00:49:25;;;;;;;5.20;2.70;;;;;;;;;;4975603;28;20038;-81
2022/08/06 00:51:51;;;;;;;3.50;2.40;;;;;;;;;;4959890;28;20463;-82
2022/08/06 00:54:16;;;;;;;5.57;2.78;;;;;;;;;;4976097;28;20070;-83
2022/08/06 00:56:42;;;;;;;5.97;2.70;;;;;;;;;;4977886;28;20042;-82
2022/08/06 00:59:08;;;;;;;4.47;3.00;;;;;;;;;;4978074;28;20039;-82
2022/08/06 01:01:33;;;;;;;3.65;2.58;;;;;;;;;;4960975;28;20053;-82
2022/08/06 01:03:59;;;;;;;4.70;2.63;;;;;;;;;;4977171;28;20045;-81
2022/08/06 01:06:24;;;;;;;4.57;2.40;;;;;;;;;;4960097;28;20125;-82
2022/08/06 01:08:50;;;;;;;3.00;2.70;;;;;;;;;;4958183;28;20035;-82
2022/08/06 01:11:15;;;;;;;4.22;2.95;;;;;;;;;;4976128;28;20487;-80
2022/08/06 01:13:41;;;;;;;3.72;2.80;;;;;;;;;;4977087;28;20086;-83
2022/08/06 01:16:17;;;;;;;4.45;2.92;;;;;;;;;;4975647;28;20038;-82
2022/08/06 01:18:55;;;;;;;3.85;2.60;;;;;;;;;;4977300;28;20039;-83
2022/08/06 01:21:34;;;;;;;4.57;2.70;;;;;;;;;;4977236;28;20125;-83
2022/08/06 01:24:22;;;;;;;4.95;2.80;;;;;;;;;;4976556;28;20506;-82
2022/08/06 01:27:00;;;;;;;5.32;2.50;;;;;;;;;;4977124;28;20484;-83
2022/08/06 01:29:35;;;;;;;3.80;2.83;;;;;;;;;;4977404;28;20039;-82
2022/08/06 01:32:17;;;;;;;3.85;2.60;;;;;;;;;;4976826;28;20459;-83
2022/08/06 01:34:52;;;;;;;4.05;2.50;;;;;;;;;;4976066;28;20075;-83
2022/08/06 01:37:25;;;;;;;6.88;2.65;;;;;;;;;;4977153;28;20084;-83
2022/08/06 01:39:56;;;;;;;4.38;2.90;;;;;;;;;;4976936;28;20046;-83
2022/08/06 01:42:25;;;;;;;4.43;2.70;;;;;;;;;;4976436;28;20547;-83
2022/08/06 01:44:54;;;;;;;3.83;2.90;;;;;;;;;;4979716;28;20506;-82
2022/08/06 01:47:22;;;;;;;3.63;2.88;;;;;;;;;;4978774;28;20039;-82
2022/08/06 01:49:53;;;;;;;3.85;2.55;;;;;;;;;;4980066;28;20042;-83
2022/08/06 01:52:19;;;;;;;3.53;2.42;;;;;;;;;;4980985;28;20038;-83
2022/08/06 01:54:47;;;;;;;3.97;2.55;;;;;;;;;;4979340;28;20366;-82
2022/08/06 01:57:17;;;;;;;3.67;2.60;;;;;;;;;;4963235;28;20096;-82
2022/08/06 01:59:46;;;;;;;3.40;2.53;;;;;;;;;;4980667;28;20093;-82
2022/08/06 02:02:17;;;;;;;3.78;2.78;;;;;;;;;;4980783;28;20098;-83
2022/08/06 02:04:45;;;;;;;3.60;2.50;;;;;;;;;;4980038;28;20038;-82
2022/08/06 02:07:14;;;;;;;3.83;2.60;;;;;;;;;;4980493;28;20038;-83
2022/08/06 02:09:43;;;;;;;2.90;2.40;;;;;;;;;;4978665;28;20042;-83
2022/08/06 02:12:11;;;;;;;5.93;2.40;;;;;;;;;;4980115;28;20065;-82
2022/08/06 02:14:45;;;;;;;3.78;2.20;;;;;;;;;;4978680;28;20069;-82
2022/08/06 02:17:14;;;;;;;4.45;2.63;;;;;;;;;;4962997;28;20149;-82
2022/08/06 02:19:43;;;;;;;3.63;2.38;;;;;;;;;;4979715;28;20041;-81
2022/08/06 02:22:09;;;;;;;3.40;2.40;;;;;;;;;;4977951;28;20049;-82
2022/08/06 02:24:36;;;;;;;3.20;2.50;;;;;;;;;;4979178;28;20038;-82
2022/08/06 02:27:03;;;;;;;4.85;2.38;;;;;;;;;;4979557;28;20035;-82
2022/08/06 02:29:30;;;;;;;3.78;2.50;;;;;;;;;;4980129;28;20042;-82
2022/08/06 02:31:56;;;;;;;3.55;2.40;;;;;;;;;;4979653;28;20484;-84
2022/08/06 02:34:21;;;;;;;3.58;2.30;;;;;;;;;;4979328;28;20037;-84
2022/08/06 02:36:57;;;;;;;2.95;2.20;;;;;;;;;;4978325;28;20089;-85
2022/08/06 02:39:35;;;;;;;3.42;2.20;;;;;;;;;;4979367;28;20054;-84
2022/08/06 02:42:11;;;;;;;4.50;2.50;;;;;;;;;;4979287;28;20105;-84
2022/08/06 02:44:47;;;;;;;2.70;2.20;;;;;;;;;;4978936;28;20178;-84
2022/08/06 02:47:45;;;;;;;4.13;2.30;;;;;;;;;;4978719;28;20555;-84
2022/08/06 02:50:15;;;;;;;3.42;2.30;;;;;;;;;;4976549;28;20435;-81
2022/08/06 02:52:45;;;;;;;2.80;2.20;;;;;;;;;;4978621;28;20043;-84
2022/08/06 02:55:18;;;;;;;3.05;2.28;;;;;;;;;;4978587;28;20022;-84
2022/08/06 02:57:52;;;;;;;5.53;2.40;;;;;;;;;;4979645;28;20069;-84
2022/08/06 03:00:20;;;;;;;4.20;2.33;;;;;;;;;;4977989;28;20049;-84
2022/08/06 03:02:48;;;;;;;7.30;2.40;;;;;;;;;;4978785;28;20062;-82
2022/08/06 03:05:17;;;;;;;5.35;2.20;;;;;;;;;;4978394;28;20050;-82
2022/08/06 03:07:46;;;;;;;3.03;2.17;;;;;;;;;;4979414;28;20031;-83
2022/08/06 03:10:12;;;;;;;3.55;2.20;;;;;;;;;;4978923;28;20041;-84
2022/08/06 03:12:39;;;;;;;2.53;2.15;;;;;;;;;;4980836;28;20451;-82
2022/08/06 03:15:06;;;;;;;4.78;2.60;;;;;;;;;;4989403;28;20432;-80
2022/08/06 03:17:34;;;;;;;3.60;2.22;;;;;;;;;;4991077;28;20034;-81
2022/08/06 03:20:02;;;;;;;3.22;2.42;;;;;;;;;;4992395;28;20038;-85
2022/08/06 03:22:30;;;;;;;3.40;2.60;;;;;;;;;;4992301;28;20042;-81
2022/08/06 03:24:57;;;;;;;3.63;2.40;;;;;;;;;;4974485;28;20035;-83
2022/08/06 03:27:23;;;;;;;4.78;2.58;;;;;;;;;;4987225;28;20555;-83
2022/08/06 03:29:50;;;;;;;4.07;2.38;;;;;;;;;;4960829;28;20065;-83
2022/08/06 03:32:16;;;;;;;3.80;2.55;;;;;;;;;;4978352;28;20039;-84
2022/08/06 03:34:43;;;;;;;5.10;2.50;;;;;;;;;;4977452;28;20030;-85
2022/08/06 03:37:09;;;;;;;3.03;2.10;;;;;;;;;;4961171;28;20439;-84
2022/08/06 03:39:38;;;;;;;3.03;2.20;;;;;;;;;;4978286;28;20062;-84
2022/08/06 03:42:04;;;;;;;2.38;2.10;;;;;;;;;;4977535;28;20049;-80
2022/08/06 03:44:30;;;;;;;3.08;2.15;;;;;;;;;;4977110;28;20061;-86
2022/08/06 03:47:02;;;;;;;4.57;2.40;;;;;;;;;;4978275;28;20126;-82
2022/08/06 03:49:50;;;;;;;4.10;2.40;;;;;;;;;;4960433;28;20070;-84
2022/08/06 03:52:20;;;;;;;3.63;2.30;;;;;;;;;;4977893;28;20087;-84
2022/08/06 03:54:49;;;;;;;6.53;2.50;;;;;;;;;;4976445;28;20035;-83
2022/08/06 03:57:20;;;;;;;3.88;2.55;;;;;;;;;;4977792;28;20154;-84
2022/08/06 03:59:48;;;;;;;4.38;2.13;;;;;;;;;;4978203;28;20124;-84
2022/08/06 04:02:15;;;;;;;3.38;2.00;;;;;;;;;;4976725;28;20030;-84
2022/08/06 04:04:42;;;;;;;4.55;2.38;;;;;;;;;;4977096;28;20035;-84
2022/08/06 04:07:09;;;;;;;5.88;2.10;;;;;;;;;;4977121;28;20042;-84
2022/08/06 04:09:34;;;;;;;6.80;2.78;;;;;;;;;;4977154;28;20034;-83
2022/08/06 04:12:02;;;;;;;4.30;2.20;;;;;;;;;;4977522;28;20506;-84
2022/08/06 04:14:28;;;;;;;5.80;1.80;;;;;;;;;;4975767;28;20035;-85
2022/08/06 04:16:54;;;;;;;5.82;2.13;;;;;;;;;;4978501;28;20456;-84
2022/08/06 04:19:21;;;;;;;3.40;2.20;;;;;;;;;;4977310;28;20047;-84
2022/08/06 04:21:47;;;;;;;3.40;1.88;;;;;;;;;;4977773;28;20574;-82
2022/08/06 04:24:14;;;;;;;2.03;1.80;;;;;;;;;;4976765;28;20026;-84
2022/08/06 04:26:43;;;;;;;3.40;2.25;;;;;;;;;;4977579;28;20034;-83
2022/08/06 04:29:15;;;;;;;3.13;1.98;;;;;;;;;;4976912;28;20062;-82
2022/08/06 04:31:44;;;;;;;3.05;2.08;;;;;;;;;;4976657;28;20439;-84
2022/08/06 04:34:11;;;;;;;6.30;2.10;;;;;;;;;;4976735;28;20034;-83
2022/08/06 04:36:37;;;;;;;2.85;2.10;;;;;;;;;;4977552;28;20127;-86
2022/08/06 04:39:03;;;;;;;2.97;2.10;;;;;;;;;;4977341;28;20053;-82
2022/08/06 04:41:29;;;;;;;2.42;2.00;;;;;;;;;;4960454;28;20608;-81
2022/08/06 04:43:54;;;;;;;2.90;2.00;;;;;;;;;;4976767;28;20118;-84
2022/08/06 04:46:21;;;;;;;3.33;1.70;;;;;;;;;;4977485;28;20031;-83
2022/08/06 04:48:47;;;;;;;3.95;1.80;;;;;;;;;;4975981;28;20117;-80
2022/08/06 04:51:13;;;;;;;3.25;1.70;;;;;;;;;;4977278;28;20100;-84
2022/08/06 04:53:40;;;;;;;4.75;1.80;;;;;;;;;;4977551;28;20034;-84
2022/08/06 04:56:07;;;;;;;3.53;1.83;;;;;;;;;;4975332;28;20039;-85
2022/08/06 04:58:34;;;;;;;3.28;1.83;;;;;;;;;;4977055;28;20050;-84
2022/08/06 05:00:59;;;;;;;3.97;1.85;;;;;;;;;;4977547;28;20026;-83
2022/08/06 05:03:26;;;;;;;3.25;1.80;;;;;;;;;;4977623;28;20454;-84
2022/08/06 05:06:17;;;;;;;3.38;1.80;;;;;;;;;;4976405;28;20031;-84
2022/08/06 05:08:46;;;;;;;3.13;1.90;;;;;;;;;;4976892;28;20074;-84
2022/08/06 05:11:18;;;;;;;3.05;1.73;;;;;;;;;;4977382;28;20027;-84
2022/08/06 05:13:46;;;;;;;3.05;1.70;;;;;;;;;;4977342;28;20049;-84
2022/08/06 05:16:14;;;;;;;2.05;1.60;;;;;;;;;;4976167;28;20050;-83
2022/08/06 05:18:44;;;;;;;2.45;1.60;;;;;;;;;;4980358;28;20423;-84
2022/08/06 05:21:14;;;;;;;2.00;1.70;;;;;;;;;;4980994;28;20477;-84
2022/08/06 05:23:49;;;;;;;3.13;1.67;;;;;;;;;;4981122;28;20042;-84
2022/08/06 05:26:15;;;;;;;3.13;1.60;;;;;;;;;;4980451;28;20061;-82
2022/08/06 05:28:41;;;;;;;4.00;1.85;;;;;;;;;;4979500;28;20411;-84
2022/08/06 05:31:08;;;;;;;2.33;1.70;;;;;;;;;;4981284;28;20038;-86
2022/08/06 05:33:36;;;;;;;2.15;1.83;;;;;;;;;;4979959;28;20039;-84
2022/08/06 05:36:03;;;;;;;5.70;1.80;;;;;;;;;;4982090;28;20026;-84
2022/08/06 05:38:30;;;;;;;2.60;1.70;;;;;;;;;;4980886;28;20066;-80
2022/08/06 05:40:55;;;;;;;4.38;1.80;;;;;;;;;;4980478;28;20030;-83
2022/08/06 05:43:22;;;;;;;3.00;2.00;;;;;;;;;;4980743;28;20508;-82
2022/08/06 05:45:50;;;;;;;2.30;1.73;;;;;;;;;;4980465;28;20062;-84
2022/08/06 05:48:19;;;;;;;2.40;1.90;;;;;;;;;;4980560;28;20404;-85
2022/08/06 05:51:01;;;;;;;2.13;1.70;;;;;;;;;;4980349;28;20127;-83
2022/08/06 05:53:37;;;;;;;3.00;1.70;;;;;;;;;;4980585;28;20035;-84
2022/08/06 05:56:29;;;;;;;4.07;1.95;;;;;;;;;;4979858;28;20381;-84
2022/08/06 05:59:10;;;;;;;3.08;1.75;;;;;;;;;;4979484;28;20511;-84
2022/08/06 06:01:36;;;;;;;3.15;1.83;;;;;;;;;;4980104;28;20035;-83
2022/08/06 06:04:03;;;;;;;2.22;1.70;;;;;;;;;;4978351;28;20102;-84
2022/08/06 06:06:30;;;;;;;4.47;2.10;;;;;;;;;;4980537;28;20038;-84
2022/08/06 06:08:55;;;;;;;3.45;1.80;;;;;;;;;;4962297;28;20065;-82
2022/08/06 06:11:22;;;;;;;2.75;1.90;;;;;;;;;;4980920;28;20046;-84
2022/08/06 06:13:49;;;;;;;3.63;2.10;;;;;;;;;;4980431;28;20050;-80
2022/08/06 06:16:28;;;;;;;3.85;1.70;;;;;;;;;;4979587;28;20046;-83
2022/08/06 06:19:01;;;;;;;4.03;2.47;;;;;;;;;;4980725;28;20082;-85
2022/08/06 06:21:45;;;;;;;4.60;2.25;;;;;;;;;;4980344;28;20066;-83
2022/08/06 06:24:20;;;;;;;2.65;1.85;;;;;;;;;;4978867;28;20411;-85
2022/08/06 06:27:15;;;;;;;2.88;1.90;;;;;;;;;;4979606;28;20053;-84
2022/08/06 06:30:00;;;;;;;2.05;1.50;;;;;;;;;;4979290;28;20079;-85
2022/08/06 06:32:41;;;;;;;2.42;1.70;;;;;;;;;;4979284;28;20038;-85
2022/08/06 06:35:12;;;;;;;2.92;1.85;;;;;;;;;;4978646;28;20059;-85
2022/08/06 06:37:56;;;;;;;4.05;1.70;;;;;;;;;;4979331;28;20101;-87
2022/08/06 06:40:28;;;;;;;2.67;1.50;;;;;;;;;;4978712;28;20062;-88
2022/08/06 06:43:05;;;;;;;3.08;1.90;;;;;;;;;;4978401;28;20065;-84
2022/08/06 06:45:37;;;;;;;3.88;1.90;;;;;;;;;;4977126;28;20039;-84
2022/08/06 06:48:11;;;;;;;3.63;1.85;;;;;;;;;;4980309;28;20086;-84
2022/08/06 06:50:49;;;;;;;2.20;1.60;;;;;;;;;;4978381;28;20037;-84
2022/08/06 06:53:17;;;;;;;2.88;1.88;;;;;;;;;;4979022;28;20038;-84
2022/08/06 06:55:46;;;;;;;2.30;1.73;;;;;;;;;;4977887;28;20035;-86
2022/08/06 06:58:48;;;;;;;2.90;2.03;;;;;;;;;;4978202;28;20062;-84
2022/08/06 07:01:15;;;;;;;2.50;1.90;;;;;;;;;;4967178;28;20125;-85
2022/08/06 07:03:43;;;;;;;2.90;1.90;;;;;;;;;;4979214;28;20038;-85
2022/08/06 07:06:10;;;;;;;3.47;2.08;;;;;;;;;;4976385;28;20432;-86
2022/08/06 07:08:44;;;;;;;4.10;2.00;;;;;;;;;;4977637;28;20407;-84
2022/08/06 07:11:16;;;;;;;2.80;2.08;;;;;;;;;;4977365;28;20034;-84
2022/08/06 07:13:43;;;;;;;2.42;1.98;;;;;;;;;;4978168;28;20043;-87
2022/08/06 07:16:12;;;;;;;3.22;2.00;;;;;;;;;;4979010;28;20039;-86
2022/08/06 07:18:38;;;;;;;2.55;1.98;;;;;;;;;;4979315;28;20062;-85
2022/08/06 07:21:05;;;;;;;2.78;2.28;;;;;;;;;;4978943;28;20034;-85
2022/08/06 07:23:32;;;;;;;2.22;2.00;;;;;;;;;;4977357;28;20073;-83
2022/08/06 07:25:59;;;;;;;4.43;2.10;;;;;;;;;;4978060;28;20034;-86
2022/08/06 07:28:26;;;;;;;2.92;2.20;;;;;;;;;;4976886;28;20035;-84
2022/08/06 07:30:53;;;;;;;4.63;2.40;;;;;;;;;;4977951;28;20038;-83
2022/08/06 07:33:19;;;;;;;2.92;2.63;;;;;;;;;;4979999;28;20022;-83
2022/08/06 07:35:47;;;;;;;3.20;2.47;;;;;;;;;;4963603;28;20031;-89
2022/08/06 07:38:15;;;;;;;3.42;2.58;;;;;;;;;;4980419;28;20042;-86
2022/08/06 07:40:47;;;;;;;3.53;2.83;;;;;;;;;;4977837;28;20034;-89
2022/08/06 07:43:18;;;;;;;3.63;2.88;;;;;;;;;;4977265;28;20047;-87
2022/08/06 07:45:46;;;;;;;3.45;2.60;;;;;;;;;;4976290;28;20038;-83
2022/08/06 07:48:13;;;;;;;4.45;2.60;;;;;;;;;;4977151;28;20031;-84
2022/08/06 07:50:44;;;;;;;3.05;2.50;;;;;;;;;;4976941;28;20038;-82
2022/08/06 07:53:10;;;;;;;3.67;2.80;;;;;;;;;;4977440;28;20054;-84
2022/08/06 07:55:38;;;;;;;3.47;2.60;;;;;;;;;;4976525;28;20030;-83
2022/08/06 07:58:04;;;;;;;3.97;2.78;;;;;;;;;;4976563;28;20459;-85
2022/08/06 08:00:31;;;;;;;3.85;2.65;;;;;;;;;;4977005;28;20026;-85
2022/08/06 08:08:29;;;;;;;3.72;2.90;;;;;;;;;;4978212;28;20126;-83
2022/08/06 08:10:55;;;;;;;5.03;3.17;;;;;;;;;;4977835;28;20047;-84
2022/08/06 08:13:23;;;;;;;3.80;3.15;;;;;;;;;;4978331;28;20031;-84
2022/08/06 08:15:49;;;;;;;5.38;3.20;;;;;;;;;;4978321;28;20045;-84
2022/08/06 08:18:15;;;;;;;4.10;3.20;;;;;;;;;;4979615;28;20154;-85
2022/08/06 08:20:42;;;;;;;3.55;2.97;;;;;;;;;;4978727;28;20070;-84
2022/08/06 08:23:11;;;;;;;4.07;3.30;;;;;;;;;;4978230;28;20065;-84
2022/08/06 08:25:37;;;;;;;4.75;3.50;;;;;;;;;;4977365;28;20114;-84
2022/08/06 08:28:02;;;;;;;5.05;3.47;;;;;;;;;;4976368;28;20424;-84
2022/08/06 08:30:28;;;;;;;5.45;3.90;;;;;;;;;;4978537;28;20050;-82
2022/08/06 08:32:53;;;;;;;6.82;3.55;;;;;;;;;;4977268;28;20074;-82
2022/08/06 08:35:19;;;;;;;6.68;4.32;;;;;;;;;;4977567;28;20031;-82
2022/08/06 08:37:44;;;;;;;7.95;4.88;;;;;;;;;;4977893;28;20039;-82
2022/08/06 08:40:10;;;;;;;7.93;5.93;;;;;;;;;;4976173;28;20038;-82
2022/08/06 08:42:42;;;;;;;7.90;5.80;;;;;;;;;;4977512;28;20523;-82
2022/08/06 08:45:09;;;;;;;9.85;5.55;;;;;;;;;;4977307;28;20043;-82
2022/08/06 08:47:40;;;;;;;9.15;5.93;;;;;;;;;;4975424;28;20109;-82
2022/08/06 08:50:06;;;;;;;10.55;5.93;;;;;;;;;;4976936;28;20041;-82
2022/08/06 08:52:33;;;;;;;12.93;6.60;;;;;;;;;;4963894;28;20095;-82
2022/08/06 08:55:02;;;;;;;9.82;6.97;;;;;;;;;;4983137;28;20046;-82
2022/08/06 08:57:28;;;;;;;10.13;6.53;;;;;;;;;;4983930;28;20117;-82
2022/08/06 08:59:55;;;;;;;11.90;6.50;;;;;;;;;;4983316;28;20482;-85
2022/08/06 09:02:23;;;;;;;11.52;6.75;;;;;;;;;;4967082;28;20106;-82
2022/08/06 09:04:49;;;;;;;13.30;6.50;;;;;;;;;;4983542;28;20039;-82
2022/08/06 09:07:15;;;;;;;11.40;6.20;;;;;;;;;;4984179;28;20088;-82
2022/08/06 09:09:41;;;;;;;9.73;6.30;;;;;;;;;;4983176;28;20086;-81
2022/08/06 09:12:07;;;;;;;8.95;6.22;;;;;;;;;;4983437;28;20459;-82
2022/08/06 09:14:34;;;;;;;11.52;6.20;;;;;;;;;;4983101;28;20396;-82
2022/08/06 09:17:02;;;;;;;10.55;5.78;;;;;;;;;;4983354;28;20718;-81
2022/08/06 09:19:29;;;;;;;9.63;6.28;;;;;;;;;;4984282;28;20034;-82
2022/08/06 09:21:58;;;;;;;8.90;6.05;;;;;;;;;;4984375;28;20038;-81
2022/08/06 09:24:24;;;;;;;7.93;6.03;;;;;;;;;;4966303;28;20472;-81
2022/08/06 09:27:14;;;;;;;8.40;5.93;;;;;;;;;;4984096;28;20034;-81
2022/08/06 09:29:48;;;;;;;8.20;5.97;;;;;;;;;;4984479;28;20039;-82
2022/08/06 09:32:40;;;;;;;8.38;5.40;;;;;;;;;;4984807;28;20040;-82
2022/08/06 09:35:19;;;;;;;6.88;5.75;;;;;;;;;;4983009;28;20073;-82
2022/08/06 09:37:45;;;;;;;8.95;4.95;;;;;;;;;;4982790;28;20126;-81
2022/08/06 09:40:16;;;;;;;6.03;4.60;;;;;;;;;;4984377;28;20050;-81
2022/08/06 09:42:44;;;;;;;5.70;5.00;;;;;;;;;;4983487;28;20053;-81
2022/08/06 09:45:15;;;;;;;5.57;4.75;;;;;;;;;;4982200;28;20041;-81
2022/08/06 09:47:41;;;;;;;6.00;4.70;;;;;;;;;;4984050;28;20030;-81
2022/08/06 09:50:08;;;;;;;8.43;5.68;;;;;;;;;;4983626;28;20037;-81
2022/08/06 09:52:34;;;;;;;6.43;5.50;;;;;;;;;;4982944;28;20040;-82
2022/08/06 09:55:00;;;;;;;6.95;5.40;;;;;;;;;;4986116;28;20035;-82
2022/08/06 09:57:41;;;;;;;8.57;5.45;;;;;;;;;;4985986;28;20093;-82
2022/08/06 10:00:08;;;;;;;5.50;4.65;;;;;;;;;;4985599;28;20042;-81
2022/08/06 10:02:34;;;;;;;7.10;5.20;;;;;;;;;;4985937;28;20035;-82
2022/08/06 10:05:11;;;;;;;5.80;4.63;;;;;;;;;;4979784;28;20093;-83
2022/08/06 10:07:37;;;;;;;6.47;5.00;;;;;;;;;;4963514;28;20121;-83
2022/08/06 10:10:05;;;;;;;6.13;5.15;;;;;;;;;;4979383;28;20054;-83
2022/08/06 10:12:31;;;;;;;6.18;5.10;;;;;;;;;;4978767;28;20491;-82
2022/08/06 10:14:56;;;;;;;5.97;4.63;;;;;;;;;;4979018;28;20030;-83
2022/08/06 10:17:23;;;;;;;7.28;4.90;;;;;;;;;;4979650;28;20070;-81
2022/08/06 10:20:12;;;;;;;7.15;5.45;;;;;;;;;;4979885;28;20034;-82
2022/08/06 10:22:56;;;;;;;6.40;4.97;;;;;;;;;;4979288;28;20496;-82
2022/08/06 10:25:22;;;;;;;5.45;4.95;;;;;;;;;;4980109;28;20046;-82
2022/08/06 10:27:49;;;;;;;5.78;4.25;;;;;;;;;;4979099;28;20039;-83
2022/08/06 10:30:15;;;;;;;4.25;3.83;;;;;;;;;;4963613;28;20106;-83
2022/08/06 10:32:53;;;;;;;5.38;4.00;;;;;;;;;;4979952;28;20073;-83
2022/08/06 10:35:21;;;;;;;4.47;3.67;;;;;;;;;;4979281;28;20495;-83
2022/08/06 10:37:58;;;;;;;4.38;3.70;;;;;;;;;;4979268;28;20046;-82
2022/08/06 10:40:26;;;;;;;4.90;3.40;;;;;;;;;;4979682;28;20134;-82
2022/08/06 10:42:52;;;;;;;2.63;2.42;;;;;;;;;;4979774;28;20047;-82
2022/08/06 10:45:18;;;;;;;2.80;2.50;;;;;;;;;;4977886;28;20031;-83
2022/08/06 10:47:45;;;;;;;3.08;2.50;;;;;;;;;;4980026;28;20453;-83
2022/08/06 10:50:13;;;;;;;2.55;2.10;;;;;;;;;;4979327;28;20023;-83
2022/08/06 10:52:40;;;;;;;2.95;2.50;;;;;;;;;;4980247;28;20630;-83
2022/08/06 10:55:06;;;;;;;2.60;2.40;;;;;;;;;;4979549;28;20035;-82
2022/08/06 10:57:32;;;;;;;2.70;2.38;;;;;;;;;;4980290;28;20117;-82
2022/08/06 10:59:59;;;;;;;3.05;2.65;;;;;;;;;;4979330;28;20188;-82
2022/08/06 11:02:37;;;;;;;3.08;2.67;;;;;;;;;;4979572;28;20117;-82
2022/08/06 11:05:12;;;;;;;3.50;2.60;;;;;;;;;;4978270;28;20117;-83
2022/08/06 11:07:55;;;;;;;3.08;2.60;;;;;;;;;;4980395;28;20117;-83
2022/08/06 11:10:46;;;;;;;3.85;2.50;;;;;;;;;;4977498;28;20035;-83
2022/08/06 11:13:12;;;;;;;2.50;2.28;;;;;;;;;;4978538;28;20054;-83
2022/08/06 11:15:40;;;;;;;2.85;2.47;;;;;;;;;;4978288;28;20046;-82
2022/08/06 11:18:08;;;;;;;3.35;2.53;;;;;;;;;;4979979;28;20484;-83
2022/08/06 11:20:36;;;;;;;4.13;3.70;;;;;;;;;;4978318;28;20030;-82
2022/08/06 11:23:13;;;;;;;3.20;2.90;;;;;;;;;;4979833;28;20491;-82
2022/08/06 11:25:50;;;;;;;3.22;2.85;;;;;;;;;;4979294;28;20027;-82
2022/08/06 11:28:18;;;;;;;3.55;2.65;;;;;;;;;;4980463;28;20043;-83
2022/08/06 11:30:47;;;;;;;3.30;2.40;;;;;;;;;;4979270;28;20045;-82
2022/08/06 11:33:17;;;;;;;4.05;2.60;;;;;;;;;;4977400;28;20030;-82
2022/08/06 11:35:45;;;;;;;2.92;2.60;;;;;;;;;;4977623;28;20035;-82
2022/08/06 11:38:13;;;;;;;12.57;2.70;;;;;;;;;;4975430;28;20023;-82
2022/08/06 11:40:57;;;;;;;2.75;2.33;;;;;;;;;;4979383;28;20053;-83
2022/08/06 11:43:41;;;;;;;3.47;2.55;;;;;;;;;;4978583;28;20022;-83
2022/08/06 11:46:40;;;;;;;2.47;1.75;;;;;;;;;;4977822;28;20041;-82
2022/08/06 11:49:23;;;;;;;2.15;1.70;;;;;;;;;;4957781;28;20042;-82
2022/08/06 11:51:56;;;;;;;2.67;1.85;;;;;;;;;;4977424;28;20104;-83
2022/08/06 11:54:24;;;;;;;1.65;1.45;;;;;;;;;;4978734;28;20046;-82
2022/08/06 11:57:06;;;;;;;1.65;1.55;;;;;;;;;;4962494;28;20042;-82
2022/08/06 12:00:09;;;;;;;1.52;1.38;;;;;;;;;;4977910;28;20039;-82
2022/08/06 12:02:45;;;;;;;1.88;1.40;;;;;;;;;;4958560;28;20121;-83
2022/08/06 12:05:14;;;;;;;1.65;1.38;;;;;;;;;;4978873;28;20046;-81
2022/08/06 12:07:40;;;;;;;1.90;1.70;;;;;;;;;;4978990;28;20093;-81
2022/08/06 12:10:06;;;;;;;2.17;1.80;;;;;;;;;;4976946;28;20031;-81
2022/08/06 12:12:50;;;;;;;2.22;2.03;;;;;;;;;;4978590;28;20037;-81
2022/08/06 12:15:16;;;;;;;2.63;2.42;;;;;;;;;;4977256;28;20098;-81
2022/08/06 12:17:57;;;;;;;2.58;2.17;;;;;;;;;;4979389;28;20100;-81
2022/08/06 12:20:39;;;;;;;2.42;2.22;;;;;;;;;;4978877;28;20043;-81
2022/08/06 12:23:06;;;;;;;2.58;2.35;;;;;;;;;;4977729;28;20047;-81
2022/08/06 12:25:32;;;;;;;1.92;1.67;;;;;;;;;;4977453;28;20041;-81
2022/08/06 12:27:59;;;;;;;2.67;1.70;;;;;;;;;;4977672;28;20065;-82
2022/08/06 12:30:25;;;;;;;2.20;1.58;;;;;;;;;;4978151;28;20038;-81
2022/08/06 12:32:59;;;;;;;1.50;1.40;;;;;;;;;;4978758;28;20062;-81
2022/08/06 12:35:24;;;;;;;2.65;1.35;;;;;;;;;;4978370;28;20058;-82
2022/08/06 12:37:50;;;;;;;1.52;1.08;;;;;;;;;;4960888;28;20030;-81
2022/08/06 12:40:26;;;;;;;1.77;1.00;;;;;;;;;;4978529;28;20037;-82
2022/08/06 12:43:01;;;;;;;1.10;1.00;;;;;;;;;;4976715;28;20049;-82
2022/08/06 12:45:28;;;;;;;1.10;1.00;;;;;;;;;;4977613;28;20046;-81
2022/08/06 12:47:58;;;;;;;1.10;1.00;;;;;;;;;;4977289;28;20049;-82
2022/08/06 12:50:24;;;;;;;1.10;1.00;;;;;;;;;;4978033;28;20042;-82
2022/08/06 12:53:15;;;;;;;1.10;1.00;;;;;;;;;;4978482;28;20454;-81
2022/08/06 12:55:49;;;;;;;1.30;1.20;;;;;;;;;;4972739;28;20431;-81
2022/08/06 12:58:16;;;;;;;1.23;1.00;;;;;;;;;;4978167;28;20031;-81
2022/08/06 13:00:46;;;;;;;2.15;1.02;;;;;;;;;;4978252;28;20046;-81
2022/08/06 13:03:13;;;;;;;0.70;0.70;;;;;;;;;;4978013;28;20092;-81
2022/08/06 13:05:40;;;;;;;1.05;0.80;;;;;;;;;;4960366;28;20419;-81
2022/08/06 13:08:06;;;;;;;0.70;0.70;;;;;;;;;;4978283;28;20487;-81
2022/08/06 13:10:32;;;;;;;0.60;0.60;;;;;;;;;;4976559;28;20038;-81
2022/08/06 13:13:04;;;;;;;0.88;0.80;;;;;;;;;;4978058;28;20031;-81
2022/08/06 13:15:31;;;;;;;0.80;0.80;;;;;;;;;;4976972;28;20034;-81
2022/08/06 13:18:21;;;;;;;1.80;0.90;;;;;;;;;;4977974;28;20035;-81
2022/08/06 13:20:50;;;;;;;1.02;0.90;;;;;;;;;;4977518;28;20110;-81
2022/08/06 13:23:37;;;;;;;2.83;1.00;;;;;;;;;;4977858;28;20093;-81
2022/08/06 13:26:13;;;;;;;1.02;0.93;;;;;;;;;;4975926;28;20047;-81
2022/08/06 13:28:40;;;;;;;0.98;0.88;;;;;;;;;;4976621;28;20041;-81
2022/08/06 13:31:18;;;;;;;1.17;1.00;;;;;;;;;;4978238;28;20081;-81
2022/08/06 13:34:01;;;;;;;1.00;1.00;;;;;;;;;;4978787;28;20101;-81
2022/08/06 13:36:28;;;;;;;1.17;1.08;;;;;;;;;;4979025;28;20404;-81
2022/08/06 13:38:55;;;;;;;1.30;1.20;;;;;;;;;;4980940;28;20039;-82
2022/08/06 13:41:29;;;;;;;1.30;1.20;;;;;;;;;;4982459;28;20042;-81
2022/08/06 13:43:54;;;;;;;1.70;1.40;;;;;;;;;;4963159;28;20027;-81
2022/08/06 13:46:27;;;;;;;1.40;1.30;;;;;;;;;;4980121;28;20476;-81
2022/08/06 13:48:54;;;;;;;1.48;1.30;;;;;;;;;;4963148;28;20555;-81
2022/08/06 13:51:22;;;;;;;1.70;1.38;;;;;;;;;;4980430;28;20035;-82
2022/08/06 13:53:47;;;;;;;2.15;1.60;;;;;;;;;;4980156;28;20035;-79
2022/08/06 13:56:14;;;;;;;1.88;1.40;;;;;;;;;;4979891;28;20114;-81
2022/08/06 13:58:41;;;;;;;2.30;1.88;;;;;;;;;;4979205;28;20563;-80
2022/08/06 14:01:06;;;;;;;2.17;1.98;;;;;;;;;;4981266;28;20045;-81
2022/08/06 14:03:32;;;;;;;2.25;2.05;;;;;;;;;;4979601;28;20066;-82
2022/08/06 14:05:58;;;;;;;2.30;2.00;;;;;;;;;;4979496;28;20031;-82
2022/08/06 14:08:23;;;;;;;2.63;2.20;;;;;;;;;;4979863;28;20060;-81
2022/08/06 14:10:49;;;;;;;2.72;2.25;;;;;;;;;;4978590;28;20062;-82
2022/08/06 14:13:17;;;;;;;2.60;2.30;;;;;;;;;;4979517;28;20078;-82
2022/08/06 14:15:44;;;;;;;2.80;2.50;;;;;;;;;;4962485;28;20041;-81
2022/08/06 14:18:10;;;;;;;2.78;2.50;;;;;;;;;;4979646;28;20039;-81
2022/08/06 14:20:35;;;;;;;3.70;2.47;;;;;;;;;;4980197;28;20031;-82
2022/08/06 14:23:01;;;;;;;3.65;2.33;;;;;;;;;;4980201;28;20516;-82
2022/08/06 14:25:27;;;;;;;2.55;2.28;;;;;;;;;;4978877;28;20042;-84
2022/08/06 14:27:53;;;;;;;2.40;2.20;;;;;;;;;;4963403;28;20065;-80
2022/08/06 14:30:20;;;;;;;3.00;2.28;;;;;;;;;;4981196;28;20065;-80
2022/08/06 14:32:45;;;;;;;3.47;2.50;;;;;;;;;;4978376;28;20488;-81
2022/08/06 14:35:12;;;;;;;7.60;2.72;;;;;;;;;;4978274;28;20034;-80
2022/08/06 14:37:38;;;;;;;3.70;2.83;;;;;;;;;;4960662;28;20042;-81
2022/08/06 14:40:04;;;;;;;3.08;2.78;;;;;;;;;;4978218;28;20035;-81
2022/08/06 14:45:14;;;;;;;6.88;2.47;;;;;;;;;;4975800;28;20066;-81
2022/08/06 14:47:40;;;;;;;3.00;2.47;;;;;;;;;;4977956;28;20039;-80
2022/08/06 14:50:07;;;;;;;4.55;2.60;;;;;;;;;;4975984;28;20031;-80
2022/08/06 14:52:32;;;;;;;4.40;2.72;;;;;;;;;;4978303;28;20113;-81
2022/08/06 14:54:59;;;;;;;4.85;3.72;;;;;;;;;;4976138;28;20073;-81
2022/08/06 14:57:24;;;;;;;4.28;2.85;;;;;;;;;;4977940;28;20026;-80
2022/08/06 14:59:50;;;;;;;2.80;2.50;;;;;;;;;;4977641;28;20061;-80
2022/08/06 15:02:16;;;;;;;3.20;2.13;;;;;;;;;;4977637;28;20506;-80
2022/08/06 15:04:41;;;;;;;3.70;2.42;;;;;;;;;;4976941;28;20173;-80
2022/08/06 15:07:07;;;;;;;2.55;2.15;;;;;;;;;;4977624;28;20050;-81